Time;durP1;ratioP1;P1;durP2;ratioP2;P2;SDS_P1;SDS_P2;PMS_P1;PMS_P2;Temp;Humidity;BMP_temperature;BMP_pressure;BME280_temperature;BME280_humidity;BME280_pressure;Samples;Min_cycle;Max_cycle;Signal;HPM_P1;HPM_P2
2023/07/27 00:01:56;;;;;;;2.93;1.97;;;;;;;-145.18;100.00;46703.38;5070944;28;20071;-63
2023/07/27 00:04:22;;;;;;;6.47;1.90;;;;;;;-145.18;100.00;46693.59;5069423;28;20119;-64
2023/07/27 00:06:48;;;;;;;4.90;1.87;;;;;;;-145.18;100.00;46672.13;5070635;28;20028;-63
2023/07/27 00:09:15;;;;;;;4.13;2.10;;;;;;;-145.18;100.00;46670.16;5069844;28;20032;-63
2023/07/27 00:11:40;;;;;;;3.83;2.00;;;;;;;-145.18;100.00;46664.31;5070242;28;20074;-63
2023/07/27 00:14:06;;;;;;;3.20;1.80;;;;;;;-145.18;100.00;46650.63;5070493;28;20028;-63
2023/07/27 00:16:31;;;;;;;4.97;1.90;;;;;;;-145.18;100.00;46656.50;5070759;28;20425;-64
2023/07/27 00:18:57;;;;;;;3.60;1.70;;;;;;;-145.18;100.00;46648.69;5070756;28;20047;-64
2023/07/27 00:21:22;;;;;;;3.13;2.10;;;;;;;-145.18;100.00;46648.69;5070572;28;20673;-64
2023/07/27 00:23:48;;;;;;;2.70;1.83;;;;;;;-145.18;100.00;46652.59;5068767;28;20027;-64
2023/07/27 00:26:13;;;;;;;5.10;2.10;;;;;;;-145.18;100.00;46652.59;5070193;28;20036;-63
2023/07/27 00:28:38;;;;;;;3.87;1.80;;;;;;;-145.18;100.00;46650.63;5070074;28;20095;-63
2023/07/27 00:31:04;;;;;;;6.00;1.90;;;;;;;-145.18;100.00;46646.72;5070216;28;20068;-63
2023/07/27 00:33:29;;;;;;;4.50;1.90;;;;;;;-145.18;100.00;46654.53;5051899;28;20036;-64
2023/07/27 00:35:59;;;;;;;6.07;2.10;;;;;;;-145.18;100.00;46638.91;5068841;28;20057;-63
2023/07/27 00:38:24;;;;;;;5.53;2.03;;;;;;;-145.18;100.00;46642.81;5070086;28;20175;-63
2023/07/27 00:40:50;;;;;;;3.50;2.20;;;;;;;-145.18;100.00;46638.91;5069984;28;20033;-63
2023/07/27 00:43:16;;;;;;;3.07;2.00;;;;;;;-145.18;100.00;46642.81;5070105;28;20060;-63
2023/07/27 00:45:41;;;;;;;2.43;1.70;;;;;;;-145.18;100.00;46640.88;5069544;28;20051;-63
2023/07/27 00:48:08;;;;;;;3.70;1.67;;;;;;;-145.18;100.00;46642.81;5069875;28;20090;-63
2023/07/27 00:50:38;;;;;;;4.90;2.33;;;;;;;-145.18;100.00;46640.88;5070082;28;20032;-62
2023/07/27 00:53:06;;;;;;;4.27;2.00;;;;;;;-145.18;100.00;46676.03;5069830;28;20552;-63
2023/07/27 00:55:32;;;;;;;5.23;2.20;;;;;;;-145.18;100.00;46660.41;5070556;28;20078;-63
2023/07/27 00:57:58;;;;;;;3.97;1.83;;;;;;;-145.18;100.00;46676.03;5068717;28;20030;-63
2023/07/27 01:00:25;;;;;;;4.73;1.83;;;;;;;-145.18;100.00;46636.94;5070193;28;20115;-63
2023/07/27 01:02:50;;;;;;;3.83;1.60;;;;;;;-145.18;100.00;46636.94;5069767;28;20032;-63
2023/07/27 01:05:16;;;;;;;2.90;1.60;;;;;;;-145.18;100.00;46644.78;5069225;28;20047;-63
2023/07/27 01:07:42;;;;;;;3.37;1.87;;;;;;;-145.18;100.00;46640.88;5067179;28;20435;-63
2023/07/27 01:10:09;;;;;;;4.10;1.97;;;;;;;-145.18;100.00;46636.94;5065367;28;20025;-62
2023/07/27 01:12:41;;;;;;;4.33;2.20;;;;;;;-145.18;100.00;46638.91;5069615;28;20036;-62
2023/07/27 01:15:11;;;;;;;5.17;1.97;;;;;;;-145.18;100.00;46640.88;5069732;28;20055;-62
2023/07/27 01:17:48;;;;;;;3.80;2.30;;;;;;;-145.18;100.00;46660.41;5069883;28;20039;-63
2023/07/27 01:20:36;;;;;;;3.13;1.87;;;;;;;-145.18;100.00;46660.41;5069839;28;20031;-62
2023/07/27 01:23:46;;;;;;;4.80;2.00;;;;;;;-145.18;100.00;46660.41;5069630;28;20036;-62
2023/07/27 01:26:56;;;;;;;3.87;2.00;;;;;;;-145.18;100.00;46636.94;5061903;28;20035;-62
2023/07/27 01:29:44;;;;;;;5.23;1.97;;;;;;;-145.18;100.00;46638.91;5048270;28;20392;-63
2023/07/27 01:32:12;;;;;;;4.00;2.10;;;;;;;-145.18;100.00;46636.94;5070029;28;20032;-69
2023/07/27 01:34:42;;;;;;;3.53;2.40;;;;;;;-145.18;100.00;46660.41;5069483;28;20040;-69
2023/07/27 01:37:09;;;;;;;7.27;2.83;;;;;;;-145.18;100.00;46676.03;5069863;28;20024;-70
2023/07/27 01:39:41;;;;;;;4.80;2.20;;;;;;;-145.18;100.00;46660.41;5069758;28;20043;-71
2023/07/27 01:42:11;;;;;;;4.50;2.30;;;;;;;-145.18;100.00;46660.41;5069750;28;20654;-72
2023/07/27 01:44:37;;;;;;;5.10;2.17;;;;;;;-145.18;100.00;46660.41;5069960;28;20052;-71
2023/07/27 01:47:04;;;;;;;3.23;2.40;;;;;;;-145.18;100.00;46660.41;5069419;28;20472;-71
2023/07/27 01:49:31;;;;;;;4.90;2.40;;;;;;;-145.18;100.00;46660.41;5069512;28;20484;-70
2023/07/27 01:51:58;;;;;;;4.47;2.40;;;;;;;-145.18;100.00;46660.41;5069366;28;20041;-72
2023/07/27 01:54:25;;;;;;;3.30;2.30;;;;;;;-145.18;100.00;46660.41;5069707;28;20111;-72
2023/07/27 01:56:54;;;;;;;4.57;2.73;;;;;;;-145.18;100.00;46660.41;5070950;28;20459;-72
2023/07/27 01:59:21;;;;;;;4.40;2.57;;;;;;;-145.18;100.00;46660.41;5073374;28;20020;-72
2023/07/27 02:01:48;;;;;;;4.33;2.90;;;;;;;-145.18;100.00;46660.41;5073187;28;20050;-73
2023/07/27 02:04:14;;;;;;;5.10;3.23;;;;;;;-145.18;100.00;46660.41;5073249;28;20056;-73
2023/07/27 02:06:39;;;;;;;4.20;2.70;;;;;;;-145.18;100.00;46660.41;5072810;28;20492;-73
2023/07/27 02:09:05;;;;;;;5.20;3.00;;;;;;;-145.18;100.00;46660.41;5073195;28;20024;-72
2023/07/27 02:11:30;;;;;;;5.93;3.27;;;;;;;-145.18;100.00;46660.41;5072909;28;20032;-73
2023/07/27 02:14:06;;;;;;;4.83;3.10;;;;;;;-145.18;100.00;46660.41;5072947;28;20032;-73
2023/07/27 02:16:54;;;;;;;6.10;3.00;;;;;;;-145.18;100.00;46660.41;5072552;28;20028;-73
2023/07/27 02:19:25;;;;;;;5.30;2.80;;;;;;;-145.18;100.00;46660.41;5072603;28;20031;-73
2023/07/27 02:21:54;;;;;;;4.93;3.33;;;;;;;-145.18;100.00;46660.41;5072187;28;20055;-74
2023/07/27 02:24:19;;;;;;;6.00;4.20;;;;;;;-145.18;100.00;46660.41;5072331;28;20040;-74
2023/07/27 02:26:45;;;;;;;5.70;3.97;;;;;;;-145.18;100.00;46660.41;5072799;28;20174;-74
2023/07/27 02:29:10;;;;;;;6.87;4.83;;;;;;;-145.18;100.00;46660.41;5072778;28;20027;-75
2023/07/27 02:31:35;;;;;;;8.10;5.37;;;;;;;-145.18;100.00;46660.41;5072911;28;20033;-75
2023/07/27 02:34:01;;;;;;;8.73;5.50;;;;;;;-145.18;100.00;46660.41;5072615;28;20108;-75
2023/07/27 02:36:26;;;;;;;8.70;5.73;;;;;;;-145.18;100.00;46660.41;5070737;28;20068;-76
2023/07/27 02:38:51;;;;;;;10.83;6.77;;;;;;;-145.18;100.00;46660.41;5071936;28;20041;-76
2023/07/27 02:41:17;;;;;;;14.13;7.17;;;;;;;-145.18;100.00;46660.41;5072618;28;20024;-61
2023/07/27 02:43:42;;;;;;;10.27;7.07;;;;;;;-145.18;100.00;46660.41;5072712;28;20391;-61
2023/07/27 02:46:08;;;;;;;11.87;7.07;;;;;;;-145.18;100.00;46629.13;5072246;28;20085;-62
2023/07/27 02:48:34;;;;;;;12.80;7.10;;;;;;;-145.18;100.00;46660.41;5072512;28;20034;-62
2023/07/27 02:50:59;;;;;;;14.23;7.50;;;;;;;-145.18;100.00;46660.41;5071871;28;20073;-62
2023/07/27 02:53:25;;;;;;;12.23;7.40;;;;;;;-145.18;100.00;46660.41;5070568;28;20036;-61
2023/07/27 02:56:01;;;;;;;13.17;7.63;;;;;;;-145.18;100.00;46660.41;5071613;28;20440;-61
2023/07/27 02:58:27;;;;;;;13.87;7.70;;;;;;;-145.18;100.00;46660.41;5071869;28;20031;-62
2023/07/27 03:00:58;;;;;;;15.63;8.63;;;;;;;-145.18;100.00;46660.41;5071598;28;20009;-62
2023/07/27 03:03:24;;;;;;;17.17;8.40;;;;;;;-145.18;100.00;46660.41;5071809;28;20016;-61
2023/07/27 03:06:01;;;;;;;15.53;8.47;;;;;;;-145.18;100.00;46660.41;5071784;28;20400;-61
2023/07/27 03:08:27;;;;;;;13.13;8.70;;;;;;;-145.18;100.00;46660.41;5071326;28;20013;-61
2023/07/27 03:10:53;;;;;;;15.70;8.33;;;;;;;-145.18;100.00;46660.41;5071891;28;20040;-62
2023/07/27 03:13:18;;;;;;;15.63;8.67;;;;;;;-145.18;100.00;46660.41;5071436;28;20480;-61
2023/07/27 03:15:43;;;;;;;14.13;8.23;;;;;;;-145.18;100.00;46660.41;5070775;28;20039;-61
2023/07/27 03:18:09;;;;;;;13.70;7.90;;;;;;;-145.18;100.00;46656.50;5071568;28;20043;-59
2023/07/27 03:20:39;;;;;;;14.33;8.63;;;;;;;-145.18;100.00;46660.41;5071555;28;20031;-61
2023/07/27 03:23:05;;;;;;;12.43;8.80;;;;;;;-145.18;100.00;46658.44;5071107;28;20653;-61
2023/07/27 03:25:34;;;;;;;15.27;8.13;;;;;;;-145.18;100.00;46660.41;5053426;28;20028;-62
2023/07/27 03:28:01;;;;;;;13.27;8.70;;;;;;;-145.18;100.00;46660.41;5070136;28;20028;-62
2023/07/27 03:30:26;;;;;;;16.37;9.03;;;;;;;-145.18;100.00;46658.44;5071320;28;20025;-62
2023/07/27 03:32:51;;;;;;;14.87;9.13;;;;;;;-145.18;100.00;46656.50;5071213;28;20139;-61
2023/07/27 03:35:17;;;;;;;14.80;8.07;;;;;;;-145.18;100.00;46660.41;5070921;28;20028;-62
2023/07/27 03:37:42;;;;;;;13.70;8.70;;;;;;;-145.18;100.00;46660.41;5070880;28;20029;-62
2023/07/27 03:40:08;;;;;;;18.10;8.53;;;;;;;-145.18;100.00;46654.53;5069603;28;20099;-62
2023/07/27 03:42:34;;;;;;;16.30;7.97;;;;;;;-145.18;100.00;46660.41;5070717;28;20017;-62
2023/07/27 03:44:59;;;;;;;13.93;8.10;;;;;;;-145.18;100.00;46658.44;5071067;28;20422;-61
2023/07/27 03:47:24;;;;;;;11.47;6.77;;;;;;;-145.18;100.00;46658.44;5070925;28;20399;-61
2023/07/27 03:49:50;;;;;;;10.80;6.10;;;;;;;-145.18;100.00;46658.44;5069850;28;20029;-62
2023/07/27 03:52:15;;;;;;;11.17;6.20;;;;;;;-145.18;100.00;46660.41;5070473;28;20518;-80
2023/07/27 03:54:41;;;;;;;11.47;6.53;;;;;;;-145.18;100.00;46660.41;5069342;28;20078;-80
2023/07/27 03:57:06;;;;;;;10.13;6.10;;;;;;;-145.18;100.00;46656.50;5070862;28;20052;-80
2023/07/27 03:59:31;;;;;;;12.33;6.07;;;;;;;-145.18;100.00;46658.44;5070859;28;20320;-78
2023/07/27 04:01:57;;;;;;;11.23;5.90;;;;;;;-145.18;100.00;46660.41;5070573;28;20093;-79
2023/07/27 04:04:23;;;;;;;9.33;5.53;;;;;;;-145.18;100.00;46660.41;5069397;28;20111;-78
2023/07/27 04:06:48;;;;;;;12.20;6.10;;;;;;;-145.18;100.00;46656.50;5070530;28;21911;-83
2023/07/27 04:09:14;;;;;;;12.17;5.67;;;;;;;-145.18;100.00;46656.50;5070245;28;20027;-81
2023/07/27 04:11:39;;;;;;;8.83;5.60;;;;;;;-145.18;100.00;46656.50;5070529;28;20024;-79
2023/07/27 04:14:05;;;;;;;9.03;5.43;;;;;;;-145.18;100.00;46654.53;5069289;28;20028;-79
2023/07/27 04:16:30;;;;;;;9.90;5.50;;;;;;;-145.18;100.00;46660.41;5070149;28;20043;-78
2023/07/27 04:18:55;;;;;;;11.10;5.77;;;;;;;-145.18;100.00;46656.50;5069857;28;20155;-77
2023/07/27 04:21:21;;;;;;;11.60;5.70;;;;;;;-145.18;100.00;46654.53;5070209;28;20275;-77
2023/07/27 04:23:46;;;;;;;12.77;5.33;;;;;;;-145.18;100.00;46615.47;5068954;28;20077;-76
2023/07/27 04:26:11;;;;;;;11.00;5.63;;;;;;;-145.18;100.00;46656.50;5068990;28;20074;-76
2023/07/27 04:28:37;;;;;;;8.33;5.13;;;;;;;-145.18;100.00;46656.50;5070002;28;20085;-75
2023/07/27 04:31:02;;;;;;;9.47;5.53;;;;;;;-145.18;100.00;46656.50;5070011;28;20037;-75
2023/07/27 04:33:27;;;;;;;8.83;5.13;;;;;;;-145.18;100.00;46654.53;5070483;28;20036;-76
2023/07/27 04:35:55;;;;;;;8.50;5.37;;;;;;;-145.18;100.00;46654.53;5068397;28;20186;-76
2023/07/27 04:38:20;;;;;;;10.53;5.90;;;;;;;-145.18;100.00;46656.50;5070127;28;20029;-76
2023/07/27 04:40:46;;;;;;;8.57;5.90;;;;;;;-145.18;100.00;46656.50;5068451;28;20035;-76
2023/07/27 04:43:12;;;;;;;10.60;5.70;;;;;;;-145.18;100.00;46656.50;5070135;28;20122;-75
2023/07/27 04:45:37;;;;;;;10.30;5.23;;;;;;;-145.18;100.00;46654.53;5068825;28;20024;-75
2023/07/27 04:48:03;;;;;;;7.80;5.03;;;;;;;-145.18;100.00;46654.53;5070313;28;20532;-75
2023/07/27 04:50:28;;;;;;;9.03;4.80;;;;;;;-145.18;100.00;46654.53;5069686;28;20020;-74
2023/07/27 04:52:54;;;;;;;7.37;4.70;;;;;;;-145.18;100.00;46652.59;5070262;28;20036;-74
2023/07/27 04:55:19;;;;;;;5.50;4.20;;;;;;;-145.18;100.00;46652.59;5069979;28;20118;-76
2023/07/27 04:57:45;;;;;;;9.50;5.10;;;;;;;-145.18;100.00;46652.59;5069818;28;20040;-76
2023/07/27 05:00:10;;;;;;;6.93;3.97;;;;;;;-145.18;100.00;46652.59;5070076;28;20496;-76
2023/07/27 05:02:36;;;;;;;7.47;4.80;;;;;;;-145.18;100.00;46615.47;5070105;28;20033;-62
2023/07/27 05:05:01;;;;;;;6.37;4.23;;;;;;;-145.18;100.00;46654.53;5069605;28;20519;-62
2023/07/27 05:07:26;;;;;;;6.63;4.27;;;;;;;-145.18;100.00;46652.59;5069892;28;20043;-61
2023/07/27 05:09:52;;;;;;;6.40;3.83;;;;;;;-145.18;100.00;46609.59;5069509;28;20082;-62
2023/07/27 05:12:17;;;;;;;7.93;4.03;;;;;;;-145.18;100.00;46611.56;5069736;28;20059;-62
2023/07/27 05:14:43;;;;;;;7.37;4.50;;;;;;;-145.18;100.00;46613.50;5069767;28;20111;-62
2023/07/27 05:17:08;;;;;;;6.60;3.50;;;;;;;-145.18;100.00;46609.59;5068609;28;20387;-62
2023/07/27 05:19:33;;;;;;;5.90;3.87;;;;;;;-145.18;100.00;46613.50;5067900;28;20025;-62
2023/07/27 05:21:59;;;;;;;5.33;3.57;;;;;;;-145.18;100.00;46609.59;5069758;28;20093;-63
2023/07/27 05:24:24;;;;;;;3.60;2.80;;;;;;;-145.18;100.00;46609.59;5069605;28;20056;-63
2023/07/27 05:26:50;;;;;;;6.43;3.17;;;;;;;-145.18;100.00;46609.59;5069681;28;20021;-62
2023/07/27 05:29:15;;;;;;;4.43;2.83;;;;;;;-145.18;100.00;46640.88;5069665;28;20036;-62
2023/07/27 05:31:40;;;;;;;4.00;2.73;;;;;;;-145.18;100.00;46609.59;5070984;28;20391;-62
2023/07/27 05:34:07;;;;;;;9.00;2.90;;;;;;;-145.18;100.00;46609.59;5072891;28;20029;-62
2023/07/27 05:36:33;;;;;;;3.93;2.70;;;;;;;-145.18;100.00;46609.59;5073149;28;20048;-62
2023/07/27 05:38:58;;;;;;;3.47;2.27;;;;;;;-145.18;100.00;46640.88;5073258;28;20476;-63
2023/07/27 05:41:23;;;;;;;2.77;2.13;;;;;;;-145.18;100.00;46607.66;5071668;28;20036;-63
2023/07/27 05:43:49;;;;;;;3.87;2.53;;;;;;;-145.18;100.00;46609.59;5072912;28;20028;-63
2023/07/27 05:46:15;;;;;;;4.07;2.53;;;;;;;-145.18;100.00;46638.91;5072966;28;20067;-63
2023/07/27 05:48:40;;;;;;;2.63;2.17;;;;;;;-145.18;100.00;46640.88;5072746;28;20056;-63
2023/07/27 05:51:05;;;;;;;3.40;2.27;;;;;;;-145.18;100.00;46640.88;5073292;28;20033;-63
2023/07/27 05:53:31;;;;;;;3.47;2.30;;;;;;;-145.18;100.00;46638.91;5072936;28;20448;-64
2023/07/27 05:55:56;;;;;;;3.93;2.20;;;;;;;-145.18;100.00;46640.88;5072757;28;20036;-63
2023/07/27 05:58:22;;;;;;;3.20;2.37;;;;;;;-145.18;100.00;46607.66;5072762;28;20081;-63
2023/07/27 06:00:47;;;;;;;2.83;2.07;;;;;;;-145.18;100.00;46607.66;5072566;28;20020;-63
2023/07/27 06:03:12;;;;;;;3.40;2.57;;;;;;;-145.18;100.00;46640.88;5072733;28;20069;-64
2023/07/27 06:05:44;;;;;;;2.83;2.20;;;;;;;-145.18;100.00;46607.66;5072683;28;20404;-63
2023/07/27 06:08:10;;;;;;;3.20;1.80;;;;;;;-145.18;100.00;46605.69;5072317;28;20116;-63
2023/07/27 06:10:35;;;;;;;2.37;1.90;;;;;;;-145.18;100.00;46609.59;5072462;28;20131;-63
2023/07/27 06:13:00;;;;;;;2.83;2.17;;;;;;;-145.18;100.00;46609.59;5072369;28;20037;-63
2023/07/27 06:15:26;;;;;;;4.43;2.37;;;;;;;-145.18;100.00;46605.69;5072626;28;20045;-63
2023/07/27 06:17:51;;;;;;;5.23;2.80;;;;;;;-145.18;100.00;46609.59;5050898;28;20471;-64
2023/07/27 06:20:16;;;;;;;3.10;2.37;;;;;;;-145.18;100.00;46609.59;5072575;28;20028;-63
2023/07/27 06:22:42;;;;;;;5.90;3.00;;;;;;;-145.18;100.00;46607.66;5072381;28;20464;-63
2023/07/27 06:25:08;;;;;;;3.50;2.57;;;;;;;-145.18;100.00;46607.66;5072394;28;20574;-63
2023/07/27 06:27:33;;;;;;;4.10;3.17;;;;;;;-145.18;100.00;46611.56;5072080;28;20024;-63
2023/07/27 06:29:59;;;;;;;3.70;3.10;;;;;;;-145.18;100.00;46603.75;5058981;28;20384;-63
2023/07/27 06:32:25;;;;;;;4.80;3.27;;;;;;;-145.18;100.00;46611.56;5072310;28;20111;-63
2023/07/27 06:34:50;;;;;;;4.13;3.27;;;;;;;-145.18;100.00;46611.56;5072240;28;20027;-63
2023/07/27 06:37:15;;;;;;;4.30;3.73;;;;;;;-145.18;100.00;46613.50;5071585;28;20049;-64
2023/07/27 06:39:41;;;;;;;6.57;4.13;;;;;;;-145.18;100.00;46609.59;5072111;28;20031;-63
2023/07/27 06:42:07;;;;;;;4.40;3.57;;;;;;;-145.18;100.00;46609.59;5070971;28;20097;-63
2023/07/27 06:44:32;;;;;;;5.80;3.77;;;;;;;-145.18;100.00;46609.59;5071843;28;20032;-63
2023/07/27 06:46:57;;;;;;;4.10;3.07;;;;;;;-145.18;100.00;46611.56;5071991;28;20510;-63
2023/07/27 06:49:23;;;;;;;5.27;3.23;;;;;;;-145.18;100.00;46607.66;5071888;28;20021;-63
2023/07/27 06:51:48;;;;;;;4.30;3.20;;;;;;;-145.18;100.00;46613.50;5071861;28;20081;-64
2023/07/27 06:54:14;;;;;;;3.33;3.03;;;;;;;-145.18;100.00;46611.56;5071864;28;20680;-64
2023/07/27 06:56:39;;;;;;;3.70;2.97;;;;;;;-145.18;100.00;46611.56;5071509;28;20112;-64
2023/07/27 06:59:05;;;;;;;3.37;2.50;;;;;;;-145.18;100.00;46609.59;5071710;28;20024;-64
2023/07/27 07:01:30;;;;;;;3.37;2.70;;;;;;;-145.18;100.00;46613.50;5071640;28;20035;-63
2023/07/27 07:03:55;;;;;;;2.57;2.37;;;;;;;-145.18;100.00;46613.50;5071399;28;20853;-63
2023/07/27 07:06:21;;;;;;;2.73;2.20;;;;;;;-145.18;100.00;46611.56;5071527;28;20035;-64
2023/07/27 07:08:47;;;;;;;2.83;2.37;;;;;;;-145.18;100.00;46613.50;5071198;28;20032;-64
2023/07/27 07:11:13;;;;;;;2.70;2.13;;;;;;;-145.18;100.00;46603.75;5071186;28;20059;-64
2023/07/27 07:13:39;;;;;;;3.70;2.20;;;;;;;-145.18;100.00;46613.50;5069963;28;20483;-64
2023/07/27 07:16:05;;;;;;;5.47;2.20;;;;;;;-145.18;100.00;46615.47;5069850;28;20035;-64
2023/07/27 07:18:30;;;;;;;2.03;1.47;;;;;;;-145.18;100.00;46613.50;5069953;28;20574;-64
2023/07/27 07:20:56;;;;;;;4.37;2.40;;;;;;;-145.18;100.00;46611.56;5070903;28;20032;-64
2023/07/27 07:23:22;;;;;;;3.00;2.20;;;;;;;-145.18;100.00;46617.41;5070749;28;20142;-72
2023/07/27 07:25:47;;;;;;;4.53;2.30;;;;;;;-145.18;100.00;46617.41;5069569;28;20041;-72
2023/07/27 07:28:13;;;;;;;3.10;2.07;;;;;;;-145.18;100.00;46611.56;5070805;28;20032;-72
2023/07/27 07:30:38;;;;;;;3.73;2.10;;;;;;;-145.18;100.00;46613.50;5070907;28;20064;-72
2023/07/27 07:33:04;;;;;;;4.60;2.73;;;;;;;-145.18;100.00;46615.47;5052929;28;20028;-72
2023/07/27 07:35:30;;;;;;;2.43;1.83;;;;;;;-145.18;100.00;46615.47;5071009;28;20186;-72
2023/07/27 07:37:55;;;;;;;2.63;2.03;;;;;;;-145.18;100.00;46613.50;5070741;28;20067;-72
2023/07/27 07:40:24;;;;;;;3.00;2.50;;;;;;;-145.18;100.00;46617.41;5071089;28;20041;-72
2023/07/27 07:42:49;;;;;;;3.93;2.47;;;;;;;-145.18;100.00;46615.47;5069382;28;20503;-71
2023/07/27 07:45:15;;;;;;;2.50;1.80;;;;;;;-145.18;100.00;46617.41;5070800;28;20043;-71
2023/07/27 07:47:40;;;;;;;2.60;2.03;;;;;;;-145.18;100.00;46615.47;5070446;28;20123;-71
2023/07/27 07:50:06;;;;;;;2.40;1.80;;;;;;;-145.18;100.00;46615.47;5070725;28;20039;-71
2023/07/27 07:52:31;;;;;;;2.67;2.10;;;;;;;-145.18;100.00;46619.38;5070573;28;20448;-71
2023/07/27 07:54:57;;;;;;;2.97;1.83;;;;;;;-145.18;100.00;46619.38;5070398;28;20036;-71
2023/07/27 07:57:22;;;;;;;3.43;1.70;;;;;;;-145.18;100.00;46621.31;5070524;28;20032;-71
2023/07/27 07:59:48;;;;;;;3.53;1.73;;;;;;;-145.18;100.00;46617.41;5070734;28;20025;-71
2023/07/27 08:02:14;;;;;;;2.73;2.10;;;;;;;-145.18;100.00;46619.38;5070656;28;20052;-71
2023/07/27 08:04:39;;;;;;;5.07;2.00;;;;;;;-145.18;100.00;46617.41;5070770;28;20162;-71
2023/07/27 08:07:05;;;;;;;4.50;2.03;;;;;;;-145.18;100.00;46615.47;5068938;28;20688;-71
2023/07/27 08:09:31;;;;;;;3.50;2.20;;;;;;;-145.18;100.00;46611.56;5070492;28;20031;-72
2023/07/27 08:11:56;;;;;;;3.13;2.27;;;;;;;-145.18;100.00;46619.38;5070366;28;20021;-72
2023/07/27 08:14:24;;;;;;;3.57;2.50;;;;;;;-145.18;100.00;46617.41;5070457;28;20031;-72
2023/07/27 08:16:49;;;;;;;4.07;2.00;;;;;;;-145.18;100.00;46615.47;5070156;28;20077;-72
2023/07/27 08:19:14;;;;;;;2.33;1.77;;;;;;;-145.18;100.00;46617.41;5070467;28;20327;-72
2023/07/27 08:21:40;;;;;;;6.70;2.40;;;;;;;-145.18;100.00;46615.47;5070131;28;20029;-72
2023/07/27 08:24:06;;;;;;;2.70;1.90;;;;;;;-145.18;100.00;46617.41;5069927;28;20549;-71
2023/07/27 08:26:32;;;;;;;5.40;3.17;;;;;;;-145.18;100.00;46617.41;5069739;28;20102;-71
2023/07/27 08:28:57;;;;;;;6.83;2.67;;;;;;;-145.18;100.00;46619.38;5070076;28;20071;-71
2023/07/27 08:31:23;;;;;;;3.97;2.00;;;;;;;-145.18;100.00;46611.56;5069901;28;20028;-64
2023/07/27 08:33:48;;;;;;;3.70;1.60;;;;;;;-145.18;100.00;46617.41;5070387;28;20035;-64
2023/07/27 08:36:14;;;;;;;5.10;2.60;;;;;;;-145.18;100.00;46617.41;5069749;28;20508;-65
2023/07/27 08:38:39;;;;;;;3.93;1.77;;;;;;;-145.18;100.00;46615.47;5070132;28;20028;-64
2023/07/27 08:41:05;;;;;;;3.43;1.90;;;;;;;-145.18;100.00;46617.41;5069704;28;20024;-64
2023/07/27 08:43:30;;;;;;;4.87;1.93;;;;;;;-145.18;100.00;46617.41;5070039;28;20040;-64
2023/07/27 08:45:56;;;;;;;5.80;2.27;;;;;;;-145.18;100.00;46617.41;5069974;28;20409;-64
2023/07/27 08:48:24;;;;;;;6.07;2.07;;;;;;;-145.18;100.00;46613.50;5068839;28;20111;-64
2023/07/27 08:50:49;;;;;;;4.60;2.30;;;;;;;-145.18;100.00;46615.47;5069864;28;20149;-64
2023/07/27 08:53:16;;;;;;;8.17;2.40;;;;;;;-145.18;100.00;46621.31;5068639;28;20120;-64
2023/07/27 08:55:41;;;;;;;6.20;2.57;;;;;;;-145.18;100.00;46623.28;5069807;28;20020;-65
2023/07/27 08:58:08;;;;;;;3.97;2.47;;;;;;;-145.18;100.00;46621.31;5070015;28;20031;-65
2023/07/27 09:00:34;;;;;;;2.43;2.00;;;;;;;-145.18;100.00;46621.31;5068532;28;20021;-64
2023/07/27 09:03:00;;;;;;;2.97;2.30;;;;;;;-145.18;100.00;46623.28;5069801;28;20036;-65
2023/07/27 09:05:45;;;;;;;4.80;2.30;;;;;;;-145.18;100.00;46621.31;5070899;28;20111;-64
2023/07/27 09:08:13;;;;;;;3.53;2.20;;;;;;;-145.18;100.00;46623.28;5073982;28;20028;-64
2023/07/27 09:10:41;;;;;;;4.73;2.63;;;;;;;-145.18;100.00;46621.31;5073781;28;20468;-64
2023/07/27 09:13:07;;;;;;;4.03;2.20;;;;;;;-145.18;100.00;46623.28;5073280;28;20119;-65
2023/07/27 09:15:34;;;;;;;5.00;2.70;;;;;;;-145.18;100.00;46623.28;5073725;28;20162;-64
2023/07/27 09:18:01;;;;;;;6.23;2.30;;;;;;;-145.18;100.00;46621.31;5073574;28;20028;-65
2023/07/27 09:20:30;;;;;;;5.60;2.23;;;;;;;-145.18;100.00;46623.28;5073636;28;20056;-65
2023/07/27 09:22:56;;;;;;;2.87;2.03;;;;;;;-145.18;100.00;46625.22;5073355;28;20514;-64
2023/07/27 09:25:22;;;;;;;4.07;2.10;;;;;;;-145.18;100.00;46627.19;5073808;28;20028;-65
2023/07/27 09:27:52;;;;;;;3.30;2.00;;;;;;;-145.18;100.00;46625.22;5073591;28;20052;-65
2023/07/27 09:30:17;;;;;;;4.37;1.83;;;;;;;-145.18;100.00;46627.19;5073518;28;20012;-65
2023/07/27 09:32:43;;;;;;;3.13;2.03;;;;;;;-145.18;100.00;46625.22;5073005;28;20392;-65
2023/07/27 09:35:19;;;;;;;4.80;2.07;;;;;;;-145.18;100.00;46623.28;5073244;28;20021;-65
2023/07/27 09:37:50;;;;;;;3.50;1.80;;;;;;;-145.18;100.00;46627.19;5069046;28;20029;-65
2023/07/27 09:40:18;;;;;;;5.47;2.27;;;;;;;-145.18;100.00;46623.28;5073414;28;20028;-65
2023/07/27 09:42:44;;;;;;;4.43;2.03;;;;;;;-145.18;100.00;46621.31;5073112;28;20050;-65
2023/07/27 09:45:13;;;;;;;3.33;2.03;;;;;;;-145.18;100.00;46621.31;5073329;28;20029;-65
2023/07/27 09:47:39;;;;;;;3.47;2.10;;;;;;;-145.18;100.00;46619.38;5073041;28;20035;-65
2023/07/27 09:50:07;;;;;;;3.67;2.00;;;;;;;-145.18;100.00;46621.31;5073460;28;20029;-65
2023/07/27 09:52:35;;;;;;;4.37;2.63;;;;;;;-145.18;100.00;46619.38;5072902;28;20036;-65
2023/07/27 09:55:00;;;;;;;3.40;2.10;;;;;;;-145.18;100.00;46617.41;5073001;28;20035;-63
2023/07/27 09:57:26;;;;;;;5.00;2.43;;;;;;;-145.18;100.00;46617.41;5072715;28;20033;-65
2023/07/27 09:59:52;;;;;;;4.90;2.20;;;;;;;-145.18;100.00;46621.31;5073041;28;20070;-65
2023/07/27 10:02:19;;;;;;;3.87;2.50;;;;;;;-145.18;100.00;46621.31;5072562;28;20025;-65
2023/07/27 10:04:49;;;;;;;3.90;2.70;;;;;;;-145.18;100.00;46621.31;5072999;28;20085;-66
2023/07/27 10:07:16;;;;;;;2.73;2.20;;;;;;;-145.18;100.00;46623.28;5072893;28;20024;-65
2023/07/27 10:09:42;;;;;;;3.10;2.30;;;;;;;-145.18;100.00;46625.22;5072731;28;20043;-66
2023/07/27 10:12:07;;;;;;;4.23;2.80;;;;;;;-145.18;100.00;46621.31;5072542;28;20492;-66
2023/07/27 10:14:33;;;;;;;4.10;2.33;;;;;;;-145.18;100.00;46621.31;5072541;28;20028;-66
2023/07/27 10:17:02;;;;;;;3.90;2.10;;;;;;;-145.18;100.00;46623.28;5070784;28;20031;-65
2023/07/27 10:19:52;;;;;;;2.80;2.00;;;;;;;-145.18;100.00;46625.22;5072468;28;20020;-65
2023/07/27 10:22:18;;;;;;;2.70;2.30;;;;;;;-145.18;100.00;46623.28;5059111;28;20036;-66
2023/07/27 10:24:48;;;;;;;4.00;2.23;;;;;;;-145.18;100.00;46625.22;5072243;28;20099;-65
2023/07/27 10:27:13;;;;;;;2.97;1.93;;;;;;;-145.18;100.00;46625.22;5072763;28;20020;-65
2023/07/27 10:29:38;;;;;;;6.13;2.20;;;;;;;-145.18;100.00;46623.28;5072073;28;20484;-65
2023/07/27 10:32:06;;;;;;;2.50;1.93;;;;;;;-145.18;100.00;46629.13;5070732;28;20036;-65
2023/07/27 10:34:34;;;;;;;2.33;1.90;;;;;;;-145.18;100.00;46627.19;5072020;28;20468;-65
2023/07/27 10:37:01;;;;;;;2.83;1.80;;;;;;;-145.18;100.00;46627.19;5072088;28;20043;-65
2023/07/27 10:39:30;;;;;;;2.50;1.77;;;;;;;-145.18;100.00;46629.13;5071843;28;20044;-65
2023/07/27 10:41:57;;;;;;;2.63;1.80;;;;;;;-145.18;100.00;46627.19;5072441;28;20028;-65
2023/07/27 10:44:25;;;;;;;2.67;1.83;;;;;;;-145.18;100.00;46627.19;5072106;28;20031;-65
2023/07/27 10:46:54;;;;;;;2.77;1.70;;;;;;;-145.18;100.00;46633.06;5072250;28;20457;-65
2023/07/27 10:49:19;;;;;;;2.00;1.77;;;;;;;-145.18;100.00;46633.06;5071882;28;20448;-65
2023/07/27 10:51:48;;;;;;;2.47;2.07;;;;;;;-145.18;100.00;46633.06;5072316;28;20612;-65
2023/07/27 10:54:14;;;;;;;2.60;1.87;;;;;;;-145.18;100.00;46633.06;5071892;28;20036;-65
2023/07/27 10:56:42;;;;;;;1.97;1.73;;;;;;;-145.18;100.00;46631.09;5072371;28;20539;-65
2023/07/27 10:59:11;;;;;;;4.00;2.17;;;;;;;-145.18;100.00;46635.00;5071502;28;20263;-65
2023/07/27 11:01:38;;;;;;;2.00;1.70;;;;;;;-145.18;100.00;46635.00;5071969;28;20029;-65
2023/07/27 11:04:04;;;;;;;2.30;2.10;;;;;;;-145.18;100.00;46638.91;5059407;28;20032;-66
2023/07/27 11:06:29;;;;;;;2.50;1.87;;;;;;;-145.18;100.00;46638.91;5071443;28;20483;-65